Hlavní strana
METAR-TAF:

METAR-TAF

Letiště :

Altenstadt, Německo

zeměpisná šířka: 47-50N, zeměpisná délka: 010-52E, výška: 739 m

Aktuální stav počasí

Zpráva byla vytvořena před 53 minutami, v 10:20 UTC
Východní vítr 6 kt
Teplota 21°C
Vlhkost vzduchu 49%
Tlak 1019 hPa
Viditelnost 10 km a více
Skoro jasno ve výšce 4500 ft

METAR: ETHA 251020Z 08006KT 9999 FEW045 21/10 Q1019 BLU+FCST CANCEL

Čas: 13:13 (11:13 UTC)

Předpověď počasí

Zpráva byla vytvořena před 21 hodinami a 53 minutami, v 13:20 UTC
Předpověď platná od 24 v 14 UTC do 24 v 23 UTC
Východní vítr 5 kt
Viditelnost 10 km a více
Polojasno ve výšce 2500 ft, Vertikální cumulus.
Oblačno až skoro zataženo ve výšce 8000 ft
Dočasný
od 24 v 14 UTC do 24 v 20 UTC
vítr z různých směrů 15 kt s nárazy do 30 kt
Viditelnost: 3000 m
Oblačno až skoro zataženo ve výšce 1000 ft, Cumulonimbus.
bouřka, malé kroupy nebo krupky

TAF: ETHA 241320Z 2414/2423 08005KT 9999 NSW SCT025TCU BKN080 TEMPO 2414/2420 VRB15G30KT 3000 TSGS BKN010CB

Stav a předpovědi počasí z více než 4 000 letišť (zprávy METAR a TAF).

Červené a žluté tečky na mapě představují dostupné meteorologické stanice.

Když kurzor umístíte na tečku, zobrazí se název stanice.

Pak kliknutím zobrazíte stav a předpověď počasí.

Chcete-li změnit mapu, kliknutím na zelené tlačítko se znaménkem +mapu přiblížíte, kliknutím na zelené tlačítko se znaménkem – mapu oddálíte a kliknutím na zelené šipky přejdete na sousední mapy.


METAR-TAF: